Airport ID:KTME
Update Time (UTC):22/02/2024 11:12
Wind Speed (Knots):7
Wind Direction (Magnetic):210
Temperature (°C):19
Dew Point (°C):17
Humidity (%):88.4
Altimeter (inHg):29.92
Density Altitude (Feet):
Visibility (Miles):10
Clouds (Hundreds of feet):FEW024 OVC032
Present Weather:
METAR:METAR KTME 221110Z AUTO 21007KT 10SM SCT024 OVC032 19/17 A2991 RMK AO2

The data displayed is for advisory purposes only and is not to be used for flight planning or operations.